sensor_id;sensor_type;location;lat;lon;timestamp;temperature;humidity
40538;DHT22;27925;41.874;12.526;2023-07-13T00:01:35;31.20;37.40
40538;DHT22;27925;41.874;12.526;2023-07-13T00:04:01;31.20;37.50
40538;DHT22;27925;41.874;12.526;2023-07-13T00:06:27;31.20;37.60
40538;DHT22;27925;41.874;12.526;2023-07-13T00:08:58;31.20;37.60
40538;DHT22;27925;41.874;12.526;2023-07-13T00:11:24;31.20;37.50
40538;DHT22;27925;41.874;12.526;2023-07-13T00:13:51;31.20;37.80
40538;DHT22;27925;41.874;12.526;2023-07-13T00:16:17;31.20;37.70
40538;DHT22;27925;41.874;12.526;2023-07-13T00:18:44;31.20;37.50
40538;DHT22;27925;41.874;12.526;2023-07-13T00:21:11;31.20;37.30
40538;DHT22;27925;41.874;12.526;2023-07-13T00:23:39;31.20;37.10
40538;DHT22;27925;41.874;12.526;2023-07-13T00:26:07;31.30;37.00
40538;DHT22;27925;41.874;12.526;2023-07-13T00:28:34;31.30;36.90
40538;DHT22;27925;41.874;12.526;2023-07-13T00:31:00;31.30;36.90
40538;DHT22;27925;41.874;12.526;2023-07-13T00:33:27;31.20;36.90
40538;DHT22;27925;41.874;12.526;2023-07-13T00:35:54;31.20;36.90
40538;DHT22;27925;41.874;12.526;2023-07-13T00:38:20;31.20;36.90
40538;DHT22;27925;41.874;12.526;2023-07-13T00:40:46;31.20;36.90
40538;DHT22;27925;41.874;12.526;2023-07-13T00:43:17;31.20;36.90
40538;DHT22;27925;41.874;12.526;2023-07-13T00:48:10;31.20;36.90
40538;DHT22;27925;41.874;12.526;2023-07-13T00:50:36;31.20;36.80
40538;DHT22;27925;41.874;12.526;2023-07-13T00:53:02;31.20;36.80
40538;DHT22;27925;41.874;12.526;2023-07-13T00:55:29;31.20;37.00
40538;DHT22;27925;41.874;12.526;2023-07-13T00:57:55;31.20;37.10
40538;DHT22;27925;41.874;12.526;2023-07-13T01:00:22;31.20;36.90
40538;DHT22;27925;41.874;12.526;2023-07-13T01:02:48;31.20;37.00
40538;DHT22;27925;41.874;12.526;2023-07-13T01:05:20;31.20;36.80
40538;DHT22;27925;41.874;12.526;2023-07-13T01:07:48;31.20;37.00
40538;DHT22;27925;41.874;12.526;2023-07-13T01:10:15;31.20;36.90
40538;DHT22;27925;41.874;12.526;2023-07-13T01:12:41;31.20;37.00
40538;DHT22;27925;41.874;12.526;2023-07-13T01:17:58;31.20;37.60
40538;DHT22;27925;41.874;12.526;2023-07-13T01:20:24;31.20;37.20
40538;DHT22;27925;41.874;12.526;2023-07-13T01:22:50;31.20;37.10
40538;DHT22;27925;41.874;12.526;2023-07-13T01:25:16;31.20;37.30
40538;DHT22;27925;41.874;12.526;2023-07-13T01:27:42;31.20;37.30
40538;DHT22;27925;41.874;12.526;2023-07-13T01:30:08;31.20;37.40
40538;DHT22;27925;41.874;12.526;2023-07-13T01:32:34;31.20;37.60
40538;DHT22;27925;41.874;12.526;2023-07-13T01:35:03;31.20;37.70
40538;DHT22;27925;41.874;12.526;2023-07-13T01:37:29;31.10;37.50
40538;DHT22;27925;41.874;12.526;2023-07-13T01:39:58;31.10;37.40
40538;DHT22;27925;41.874;12.526;2023-07-13T01:42:24;31.10;37.60
40538;DHT22;27925;41.874;12.526;2023-07-13T01:44:50;31.10;37.40
40538;DHT22;27925;41.874;12.526;2023-07-13T01:47:16;31.20;37.60
40538;DHT22;27925;41.874;12.526;2023-07-13T01:49:41;31.20;37.90
40538;DHT22;27925;41.874;12.526;2023-07-13T01:52:07;31.10;37.70
40538;DHT22;27925;41.874;12.526;2023-07-13T01:54:33;31.10;37.90
40538;DHT22;27925;41.874;12.526;2023-07-13T01:56:59;31.10;37.90
40538;DHT22;27925;41.874;12.526;2023-07-13T01:59:25;31.20;38.00
40538;DHT22;27925;41.874;12.526;2023-07-13T02:01:51;31.20;38.00
40538;DHT22;27925;41.874;12.526;2023-07-13T02:04:17;31.20;38.00
40538;DHT22;27925;41.874;12.526;2023-07-13T02:06:42;31.20;38.90
40538;DHT22;27925;41.874;12.526;2023-07-13T02:09:08;31.20;38.20
40538;DHT22;27925;41.874;12.526;2023-07-13T02:11:34;31.20;38.20
40538;DHT22;27925;41.874;12.526;2023-07-13T02:14:00;31.20;38.10
40538;DHT22;27925;41.874;12.526;2023-07-13T02:16:27;31.20;38.30
40538;DHT22;27925;41.874;12.526;2023-07-13T02:18:53;31.10;38.50
40538;DHT22;27925;41.874;12.526;2023-07-13T02:21:21;31.20;38.50
40538;DHT22;27925;41.874;12.526;2023-07-13T02:23:47;31.10;38.30
40538;DHT22;27925;41.874;12.526;2023-07-13T02:26:13;31.10;38.70
40538;DHT22;27925;41.874;12.526;2023-07-13T02:28:38;31.20;38.80
40538;DHT22;27925;41.874;12.526;2023-07-13T02:31:06;31.10;38.50
40538;DHT22;27925;41.874;12.526;2023-07-13T02:33:32;31.10;38.80
40538;DHT22;27925;41.874;12.526;2023-07-13T02:35:58;31.10;38.90
40538;DHT22;27925;41.874;12.526;2023-07-13T02:38:23;31.10;38.90
40538;DHT22;27925;41.874;12.526;2023-07-13T02:40:49;31.10;38.90
40538;DHT22;27925;41.874;12.526;2023-07-13T02:43:15;31.10;39.00
40538;DHT22;27925;41.874;12.526;2023-07-13T02:45:44;31.10;39.00
40538;DHT22;27925;41.874;12.526;2023-07-13T02:48:10;31.10;39.00
40538;DHT22;27925;41.874;12.526;2023-07-13T02:50:35;31.10;39.00
40538;DHT22;27925;41.874;12.526;2023-07-13T02:53:01;31.00;38.90
40538;DHT22;27925;41.874;12.526;2023-07-13T02:55:27;31.00;38.90
40538;DHT22;27925;41.874;12.526;2023-07-13T02:57:52;31.00;39.00
40538;DHT22;27925;41.874;12.526;2023-07-13T03:00:19;31.00;39.10
40538;DHT22;27925;41.874;12.526;2023-07-13T03:02:45;31.00;39.10
40538;DHT22;27925;41.874;12.526;2023-07-13T03:05:11;31.00;39.20
40538;DHT22;27925;41.874;12.526;2023-07-13T03:07:38;31.00;39.10
40538;DHT22;27925;41.874;12.526;2023-07-13T03:10:04;31.00;39.10
40538;DHT22;27925;41.874;12.526;2023-07-13T03:12:32;30.90;39.50
40538;DHT22;27925;41.874;12.526;2023-07-13T03:14:58;30.90;39.50
40538;DHT22;27925;41.874;12.526;2023-07-13T03:17:24;30.90;39.70
40538;DHT22;27925;41.874;12.526;2023-07-13T03:19:49;30.90;40.20
40538;DHT22;27925;41.874;12.526;2023-07-13T03:22:17;30.80;40.80
40538;DHT22;27925;41.874;12.526;2023-07-13T03:24:44;30.70;41.60
40538;DHT22;27925;41.874;12.526;2023-07-13T03:27:09;30.70;42.10
40538;DHT22;27925;41.874;12.526;2023-07-13T03:29:35;30.60;42.60
40538;DHT22;27925;41.874;12.526;2023-07-13T03:32:01;30.50;43.10
40538;DHT22;27925;41.874;12.526;2023-07-13T03:34:27;30.40;43.40
40538;DHT22;27925;41.874;12.526;2023-07-13T03:36:56;30.30;43.80
40538;DHT22;27925;41.874;12.526;2023-07-13T03:39:21;30.20;44.00
40538;DHT22;27925;41.874;12.526;2023-07-13T03:41:47;30.10;44.20
40538;DHT22;27925;41.874;12.526;2023-07-13T03:44:15;30.00;45.30
40538;DHT22;27925;41.874;12.526;2023-07-13T03:46:40;30.00;44.70
40538;DHT22;27925;41.874;12.526;2023-07-13T03:49:06;29.90;44.60
40538;DHT22;27925;41.874;12.526;2023-07-13T03:51:32;29.90;44.50
40538;DHT22;27925;41.874;12.526;2023-07-13T03:53:57;29.90;44.60
40538;DHT22;27925;41.874;12.526;2023-07-13T03:56:23;29.90;44.60
40538;DHT22;27925;41.874;12.526;2023-07-13T03:58:50;29.90;44.60
40538;DHT22;27925;41.874;12.526;2023-07-13T04:01:18;29.90;44.80
40538;DHT22;27925;41.874;12.526;2023-07-13T04:03:44;29.90;45.20
40538;DHT22;27925;41.874;12.526;2023-07-13T04:06:23;29.80;45.30
40538;DHT22;27925;41.874;12.526;2023-07-13T04:08:52;29.80;45.40
40538;DHT22;27925;41.874;12.526;2023-07-13T04:11:19;29.90;45.50
40538;DHT22;27925;41.874;12.526;2023-07-13T04:13:46;29.90;44.90
40538;DHT22;27925;41.874;12.526;2023-07-13T04:16:13;30.00;44.90
40538;DHT22;27925;41.874;12.526;2023-07-13T04:18:38;30.00;45.00
40538;DHT22;27925;41.874;12.526;2023-07-13T04:21:04;30.00;44.70
40538;DHT22;27925;41.874;12.526;2023-07-13T04:23:30;30.10;44.30
40538;DHT22;27925;41.874;12.526;2023-07-13T04:25:56;30.10;44.20
40538;DHT22;27925;41.874;12.526;2023-07-13T04:28:23;30.10;43.50
40538;DHT22;27925;41.874;12.526;2023-07-13T04:30:50;30.20;43.00
40538;DHT22;27925;41.874;12.526;2023-07-13T04:33:16;30.20;42.70
40538;DHT22;27925;41.874;12.526;2023-07-13T04:35:52;30.30;42.40
40538;DHT22;27925;41.874;12.526;2023-07-13T04:38:23;30.30;42.00
40538;DHT22;27925;41.874;12.526;2023-07-13T04:40:50;30.40;41.30
40538;DHT22;27925;41.874;12.526;2023-07-13T04:43:16;30.50;41.10
40538;DHT22;27925;41.874;12.526;2023-07-13T04:45:42;30.60;40.70
40538;DHT22;27925;41.874;12.526;2023-07-13T04:48:08;30.70;40.30
40538;DHT22;27925;41.874;12.526;2023-07-13T04:50:36;30.70;39.80
40538;DHT22;27925;41.874;12.526;2023-07-13T04:53:02;30.80;39.40
40538;DHT22;27925;41.874;12.526;2023-07-13T04:55:29;30.90;39.50
40538;DHT22;27925;41.874;12.526;2023-07-13T04:57:56;30.90;39.10
40538;DHT22;27925;41.874;12.526;2023-07-13T05:00:24;30.90;39.30
40538;DHT22;27925;41.874;12.526;2023-07-13T05:02:50;31.00;39.30
40538;DHT22;27925;41.874;12.526;2023-07-13T05:05:16;31.00;39.10
40538;DHT22;27925;41.874;12.526;2023-07-13T05:07:42;31.10;39.10
40538;DHT22;27925;41.874;12.526;2023-07-13T05:10:08;31.20;38.90
40538;DHT22;27925;41.874;12.526;2023-07-13T05:12:34;31.20;39.10
40538;DHT22;27925;41.874;12.526;2023-07-13T05:15:01;31.30;39.30
40538;DHT22;27925;41.874;12.526;2023-07-13T05:17:27;31.30;39.90
40538;DHT22;27925;41.874;12.526;2023-07-13T05:19:53;31.30;39.60
40538;DHT22;27925;41.874;12.526;2023-07-13T05:22:18;31.50;39.90
40538;DHT22;27925;41.874;12.526;2023-07-13T05:24:44;31.50;39.60
40538;DHT22;27925;41.874;12.526;2023-07-13T05:27:10;31.60;39.80
40538;DHT22;27925;41.874;12.526;2023-07-13T05:29:36;31.80;39.80
40538;DHT22;27925;41.874;12.526;2023-07-13T05:32:02;32.00;39.60
40538;DHT22;27925;41.874;12.526;2023-07-13T05:34:28;32.30;39.30
40538;DHT22;27925;41.874;12.526;2023-07-13T05:36:55;32.60;38.50
40538;DHT22;27925;41.874;12.526;2023-07-13T05:39:20;32.80;37.90
40538;DHT22;27925;41.874;12.526;2023-07-13T05:41:46;33.00;37.50
40538;DHT22;27925;41.874;12.526;2023-07-13T05:44:12;33.30;37.10
40538;DHT22;27925;41.874;12.526;2023-07-13T05:46:38;33.50;36.20
40538;DHT22;27925;41.874;12.526;2023-07-13T05:49:04;33.80;35.50
40538;DHT22;27925;41.874;12.526;2023-07-13T05:51:29;33.90;34.80
40538;DHT22;27925;41.874;12.526;2023-07-13T05:53:55;34.10;34.50
40538;DHT22;27925;41.874;12.526;2023-07-13T05:56:21;34.30;34.30
40538;DHT22;27925;41.874;12.526;2023-07-13T05:58:48;34.40;34.00
40538;DHT22;27925;41.874;12.526;2023-07-13T06:01:15;34.60;33.40
40538;DHT22;27925;41.874;12.526;2023-07-13T06:03:41;34.90;33.50
40538;DHT22;27925;41.874;12.526;2023-07-13T06:06:09;35.00;33.00
40538;DHT22;27925;41.874;12.526;2023-07-13T06:08:35;35.10;32.90
40538;DHT22;27925;41.874;12.526;2023-07-13T06:11:04;35.30;32.90
40538;DHT22;27925;41.874;12.526;2023-07-13T06:13:30;35.40;32.60
40538;DHT22;27925;41.874;12.526;2023-07-13T06:15:55;35.60;32.60
40538;DHT22;27925;41.874;12.526;2023-07-13T06:18:21;35.70;32.20
40538;DHT22;27925;41.874;12.526;2023-07-13T06:20:46;35.80;32.00
40538;DHT22;27925;41.874;12.526;2023-07-13T06:23:12;35.90;31.80
40538;DHT22;27925;41.874;12.526;2023-07-13T06:25:38;36.00;31.70
40538;DHT22;27925;41.874;12.526;2023-07-13T06:28:05;36.00;31.60
40538;DHT22;27925;41.874;12.526;2023-07-13T06:30:30;36.10;31.80
40538;DHT22;27925;41.874;12.526;2023-07-13T06:32:57;36.30;31.70
40538;DHT22;27925;41.874;12.526;2023-07-13T06:35:23;36.40;31.70
40538;DHT22;27925;41.874;12.526;2023-07-13T06:37:48;36.50;31.40
40538;DHT22;27925;41.874;12.526;2023-07-13T06:40:14;36.50;31.40
40538;DHT22;27925;41.874;12.526;2023-07-13T06:42:40;36.60;31.30
40538;DHT22;27925;41.874;12.526;2023-07-13T06:45:06;36.70;31.30
40538;DHT22;27925;41.874;12.526;2023-07-13T06:47:32;36.60;31.20
40538;DHT22;27925;41.874;12.526;2023-07-13T06:49:57;36.60;31.30
40538;DHT22;27925;41.874;12.526;2023-07-13T06:52:23;36.50;31.20
40538;DHT22;27925;41.874;12.526;2023-07-13T06:54:49;36.50;31.30
40538;DHT22;27925;41.874;12.526;2023-07-13T06:57:14;36.50;31.40
40538;DHT22;27925;41.874;12.526;2023-07-13T06:59:40;36.40;31.50
40538;DHT22;27925;41.874;12.526;2023-07-13T07:02:07;36.40;31.60
40538;DHT22;27925;41.874;12.526;2023-07-13T07:04:33;36.40;31.70
40538;DHT22;27925;41.874;12.526;2023-07-13T07:06:58;36.40;32.00
40538;DHT22;27925;41.874;12.526;2023-07-13T07:09:24;36.50;31.80
40538;DHT22;27925;41.874;12.526;2023-07-13T07:11:50;36.50;31.80
40538;DHT22;27925;41.874;12.526;2023-07-13T07:14:15;36.50;32.00
40538;DHT22;27925;41.874;12.526;2023-07-13T07:16:41;36.60;32.10
40538;DHT22;27925;41.874;12.526;2023-07-13T07:19:07;36.70;31.80
40538;DHT22;27925;41.874;12.526;2023-07-13T07:21:32;36.70;31.80
40538;DHT22;27925;41.874;12.526;2023-07-13T07:23:58;36.70;32.00
40538;DHT22;27925;41.874;12.526;2023-07-13T07:26:25;36.70;31.80
40538;DHT22;27925;41.874;12.526;2023-07-13T07:28:51;36.70;31.90
40538;DHT22;27925;41.874;12.526;2023-07-13T07:31:16;36.70;31.90
40538;DHT22;27925;41.874;12.526;2023-07-13T07:33:42;36.80;32.00
40538;DHT22;27925;41.874;12.526;2023-07-13T07:36:08;36.80;32.20
40538;DHT22;27925;41.874;12.526;2023-07-13T07:38:34;36.80;32.10
40538;DHT22;27925;41.874;12.526;2023-07-13T07:41:03;36.70;32.20
40538;DHT22;27925;41.874;12.526;2023-07-13T07:43:29;36.70;32.20
40538;DHT22;27925;41.874;12.526;2023-07-13T07:45:55;36.80;32.80
40538;DHT22;27925;41.874;12.526;2023-07-13T07:48:21;36.80;32.80
40538;DHT22;27925;41.874;12.526;2023-07-13T07:50:47;36.80;33.00
40538;DHT22;27925;41.874;12.526;2023-07-13T07:53:12;36.70;33.00
40538;DHT22;27925;41.874;12.526;2023-07-13T07:55:38;36.70;33.40
40538;DHT22;27925;41.874;12.526;2023-07-13T07:58:05;36.70;33.60
40538;DHT22;27925;41.874;12.526;2023-07-13T08:00:31;36.60;33.70
40538;DHT22;27925;41.874;12.526;2023-07-13T08:02:58;36.60;33.90
40538;DHT22;27925;41.874;12.526;2023-07-13T08:05:25;36.50;33.70
40538;DHT22;27925;41.874;12.526;2023-07-13T08:07:51;36.40;34.00
40538;DHT22;27925;41.874;12.526;2023-07-13T08:10:17;36.30;34.20
40538;DHT22;27925;41.874;12.526;2023-07-13T08:12:42;36.30;34.50
40538;DHT22;27925;41.874;12.526;2023-07-13T08:15:13;36.30;34.70
40538;DHT22;27925;41.874;12.526;2023-07-13T08:17:39;36.30;34.80
40538;DHT22;27925;41.874;12.526;2023-07-13T08:20:06;36.30;35.00
40538;DHT22;27925;41.874;12.526;2023-07-13T08:22:31;36.20;35.50
40538;DHT22;27925;41.874;12.526;2023-07-13T08:24:58;36.00;35.40
40538;DHT22;27925;41.874;12.526;2023-07-13T08:27:25;35.90;35.70
40538;DHT22;27925;41.874;12.526;2023-07-13T08:29:51;35.90;36.10
40538;DHT22;27925;41.874;12.526;2023-07-13T08:32:18;35.80;36.20
40538;DHT22;27925;41.874;12.526;2023-07-13T08:34:44;35.80;36.50
40538;DHT22;27925;41.874;12.526;2023-07-13T08:37:10;35.70;36.50
40538;DHT22;27925;41.874;12.526;2023-07-13T08:39:36;35.80;36.80
40538;DHT22;27925;41.874;12.526;2023-07-13T08:47:26;35.60;37.90
40538;DHT22;27925;41.874;12.526;2023-07-13T08:49:53;35.50;37.70
40538;DHT22;27925;41.874;12.526;2023-07-13T08:52:39;35.50;37.90
40538;DHT22;27925;41.874;12.526;2023-07-13T08:55:16;35.50;38.10
40538;DHT22;27925;41.874;12.526;2023-07-13T08:57:46;35.50;38.80
40538;DHT22;27925;41.874;12.526;2023-07-13T09:00:14;35.50;38.40
40538;DHT22;27925;41.874;12.526;2023-07-13T09:03:12;35.50;38.70
40538;DHT22;27925;41.874;12.526;2023-07-13T09:05:42;35.50;39.10
40538;DHT22;27925;41.874;12.526;2023-07-13T09:16:16;35.50;39.10
40538;DHT22;27925;41.874;12.526;2023-07-13T09:18:46;35.50;39.10
40538;DHT22;27925;41.874;12.526;2023-07-13T09:21:23;35.50;39.30
40538;DHT22;27925;41.874;12.526;2023-07-13T09:26:23;35.50;39.80
40538;DHT22;27925;41.874;12.526;2023-07-13T09:29:09;35.40;40.30
40538;DHT22;27925;41.874;12.526;2023-07-13T09:31:42;35.40;41.00
40538;DHT22;27925;41.874;12.526;2023-07-13T09:34:14;35.40;40.90
40538;DHT22;27925;41.874;12.526;2023-07-13T09:36:40;35.40;40.10
40538;DHT22;27925;41.874;12.526;2023-07-13T09:39:21;35.40;40.10
40538;DHT22;27925;41.874;12.526;2023-07-13T09:44:17;35.50;40.20
40538;DHT22;27925;41.874;12.526;2023-07-13T09:46:52;35.50;40.10
40538;DHT22;27925;41.874;12.526;2023-07-13T09:49:18;35.50;40.20
40538;DHT22;27925;41.874;12.526;2023-07-13T09:51:44;35.50;40.30
40538;DHT22;27925;41.874;12.526;2023-07-13T09:54:24;35.50;40.30
40538;DHT22;27925;41.874;12.526;2023-07-13T09:56:58;35.50;40.40
40538;DHT22;27925;41.874;12.526;2023-07-13T09:59:29;35.50;40.30
40538;DHT22;27925;41.874;12.526;2023-07-13T10:01:55;35.50;40.40
40538;DHT22;27925;41.874;12.526;2023-07-13T10:04:33;35.50;40.50
40538;DHT22;27925;41.874;12.526;2023-07-13T10:07:11;35.60;41.40
40538;DHT22;27925;41.874;12.526;2023-07-13T10:09:38;35.60;41.50
40538;DHT22;27925;41.874;12.526;2023-07-13T10:12:15;35.60;40.80
40538;DHT22;27925;41.874;12.526;2023-07-13T10:14:42;35.60;40.80
40538;DHT22;27925;41.874;12.526;2023-07-13T10:17:13;35.50;40.80
40538;DHT22;27925;41.874;12.526;2023-07-13T10:19:41;35.50;41.10
40538;DHT22;27925;41.874;12.526;2023-07-13T10:24:55;35.50;41.50
40538;DHT22;27925;41.874;12.526;2023-07-13T10:27:35;35.50;41.60
40538;DHT22;27925;41.874;12.526;2023-07-13T10:32:43;35.50;42.40
40538;DHT22;27925;41.874;12.526;2023-07-13T10:35:14;35.60;41.70
40538;DHT22;27925;41.874;12.526;2023-07-13T10:38:06;35.60;41.70
40538;DHT22;27925;41.874;12.526;2023-07-13T10:40:56;35.70;42.60
40538;DHT22;27925;41.874;12.526;2023-07-13T10:43:44;35.70;42.10
40538;DHT22;27925;41.874;12.526;2023-07-13T10:46:14;35.80;43.10
40538;DHT22;27925;41.874;12.526;2023-07-13T10:48:42;35.80;42.60
40538;DHT22;27925;41.874;12.526;2023-07-13T10:51:10;35.80;42.70
40538;DHT22;27925;41.874;12.526;2023-07-13T10:53:38;35.70;42.90
40538;DHT22;27925;41.874;12.526;2023-07-13T10:58:42;35.70;43.00
40538;DHT22;27925;41.874;12.526;2023-07-13T11:01:16;35.80;43.90
40538;DHT22;27925;41.874;12.526;2023-07-13T11:03:50;35.70;44.00
40538;DHT22;27925;41.874;12.526;2023-07-13T11:08:51;35.70;44.00
40538;DHT22;27925;41.874;12.526;2023-07-13T11:18:51;35.80;43.90
40538;DHT22;27925;41.874;12.526;2023-07-13T11:21:26;35.80;44.00
40538;DHT22;27925;41.874;12.526;2023-07-13T11:24:01;35.80;43.90
40538;DHT22;27925;41.874;12.526;2023-07-13T11:26:43;35.80;43.80
40538;DHT22;27925;41.874;12.526;2023-07-13T11:31:58;35.90;44.80
40538;DHT22;27925;41.874;12.526;2023-07-13T11:34:33;36.00;44.10
40538;DHT22;27925;41.874;12.526;2023-07-13T11:37:01;36.10;43.90
40538;DHT22;27925;41.874;12.526;2023-07-13T11:39:35;36.00;43.70
40538;DHT22;27925;41.874;12.526;2023-07-13T11:42:12;36.10;43.80
40538;DHT22;27925;41.874;12.526;2023-07-13T11:44:43;36.10;43.80
40538;DHT22;27925;41.874;12.526;2023-07-13T11:47:18;36.20;43.70
40538;DHT22;27925;41.874;12.526;2023-07-13T11:49:49;36.20;44.00
40538;DHT22;27925;41.874;12.526;2023-07-13T11:52:21;36.20;44.20
40538;DHT22;27925;41.874;12.526;2023-07-13T11:54:57;36.10;44.30
40538;DHT22;27925;41.874;12.526;2023-07-13T11:57:32;36.20;44.20
40538;DHT22;27925;41.874;12.526;2023-07-13T12:00:09;36.20;45.10
40538;DHT22;27925;41.874;12.526;2023-07-13T12:02:39;36.20;45.10
40538;DHT22;27925;41.874;12.526;2023-07-13T12:05:10;36.20;44.70
40538;DHT22;27925;41.874;12.526;2023-07-13T12:07:38;36.20;44.60
40538;DHT22;27925;41.874;12.526;2023-07-13T12:10:25;36.20;44.40
40538;DHT22;27925;41.874;12.526;2023-07-13T12:12:57;36.30;44.90
40538;DHT22;27925;41.874;12.526;2023-07-13T12:15:29;36.20;45.00
40538;DHT22;27925;41.874;12.526;2023-07-13T12:17:56;36.20;44.90
40538;DHT22;27925;41.874;12.526;2023-07-13T12:20:26;36.10;45.00
40538;DHT22;27925;41.874;12.526;2023-07-13T12:22:52;36.10;45.70
40538;DHT22;27925;41.874;12.526;2023-07-13T12:25:19;36.00;45.20
40538;DHT22;27925;41.874;12.526;2023-07-13T12:27:49;36.00;45.30
40538;DHT22;27925;41.874;12.526;2023-07-13T12:30:27;35.90;45.90
40538;DHT22;27925;41.874;12.526;2023-07-13T12:33:00;35.90;46.00
40538;DHT22;27925;41.874;12.526;2023-07-13T12:35:28;36.00;46.10
40538;DHT22;27925;41.874;12.526;2023-07-13T12:37:57;35.90;46.40
40538;DHT22;27925;41.874;12.526;2023-07-13T12:40:30;35.80;46.40
40538;DHT22;27925;41.874;12.526;2023-07-13T12:42:58;35.80;46.70
40538;DHT22;27925;41.874;12.526;2023-07-13T12:45:28;35.70;46.90
40538;DHT22;27925;41.874;12.526;2023-07-13T12:48:05;35.70;47.10
40538;DHT22;27925;41.874;12.526;2023-07-13T12:50:38;35.70;47.30
40538;DHT22;27925;41.874;12.526;2023-07-13T12:53:12;35.70;47.10
40538;DHT22;27925;41.874;12.526;2023-07-13T12:55:46;35.70;47.20
40538;DHT22;27925;41.874;12.526;2023-07-13T12:58:28;35.70;47.30
40538;DHT22;27925;41.874;12.526;2023-07-13T13:00:57;35.60;47.40
40538;DHT22;27925;41.874;12.526;2023-07-13T13:03:31;35.60;47.60
40538;DHT22;27925;41.874;12.526;2023-07-13T13:08:29;35.50;47.60
40538;DHT22;27925;41.874;12.526;2023-07-13T13:10:55;35.50;47.50
40538;DHT22;27925;41.874;12.526;2023-07-13T13:13:21;35.50;47.50
40538;DHT22;27925;41.874;12.526;2023-07-13T13:15:47;35.50;47.80
40538;DHT22;27925;41.874;12.526;2023-07-13T13:18:23;35.40;47.90
40538;DHT22;27925;41.874;12.526;2023-07-13T13:20:51;35.30;48.00
40538;DHT22;27925;41.874;12.526;2023-07-13T13:23:19;35.30;48.10
40538;DHT22;27925;41.874;12.526;2023-07-13T13:25:46;35.30;48.30
40538;DHT22;27925;41.874;12.526;2023-07-13T13:28:18;35.30;48.60
40538;DHT22;27925;41.874;12.526;2023-07-13T13:30:46;35.20;48.70
40538;DHT22;27925;41.874;12.526;2023-07-13T13:33:18;35.20;48.30
40538;DHT22;27925;41.874;12.526;2023-07-13T13:35:45;35.20;48.00
40538;DHT22;27925;41.874;12.526;2023-07-13T13:38:15;35.20;48.00
40538;DHT22;27925;41.874;12.526;2023-07-13T13:40:42;35.30;48.10
40538;DHT22;27925;41.874;12.526;2023-07-13T13:43:21;35.40;48.30
40538;DHT22;27925;41.874;12.526;2023-07-13T13:45:51;35.40;48.20
40538;DHT22;27925;41.874;12.526;2023-07-13T13:48:21;35.50;48.40
40538;DHT22;27925;41.874;12.526;2023-07-13T13:50:56;35.50;48.50
40538;DHT22;27925;41.874;12.526;2023-07-13T13:53:22;35.50;48.30
40538;DHT22;27925;41.874;12.526;2023-07-13T13:55:49;35.50;48.30
40538;DHT22;27925;41.874;12.526;2023-07-13T13:58:15;35.50;48.30
40538;DHT22;27925;41.874;12.526;2023-07-13T23:30:29;29.70;62.20
40538;DHT22;27925;41.874;12.526;2023-07-13T23:33:05;29.50;61.40
40538;DHT22;27925;41.874;12.526;2023-07-13T23:35:34;29.40;62.80
40538;DHT22;27925;41.874;12.526;2023-07-13T23:38:00;29.40;62.00
40538;DHT22;27925;41.874;12.526;2023-07-13T23:40:27;29.40;62.40
40538;DHT22;27925;41.874;12.526;2023-07-13T23:42:53;29.40;62.10
40538;DHT22;27925;41.874;12.526;2023-07-13T23:45:25;29.40;62.10
40538;DHT22;27925;41.874;12.526;2023-07-13T23:47:54;29.40;62.20
40538;DHT22;27925;41.874;12.526;2023-07-13T23:52:48;29.40;62.50
40538;DHT22;27925;41.874;12.526;2023-07-13T23:55:19;29.40;62.40
40538;DHT22;27925;41.874;12.526;2023-07-13T23:57:47;29.40;62.60
